sensor_id;sensor_type;location;lat;lon;timestamp;P1;durP1;ratioP1;P2;durP2;ratioP2
6757;SDS011;3416;53.074;8.822;2023-12-20T00:00:34;17.63;;;6.22;;
6757;SDS011;3416;53.074;8.822;2023-12-20T00:03:02;17.42;;;3.55;;
6757;SDS011;3416;53.074;8.822;2023-12-20T00:05:29;7.35;;;2.30;;
6757;SDS011;3416;53.074;8.822;2023-12-20T00:07:58;18.48;;;4.20;;
6757;SDS011;3416;53.074;8.822;2023-12-20T00:10:25;5.00;;;2.38;;
6757;SDS011;3416;53.074;8.822;2023-12-20T00:12:52;7.28;;;2.88;;
6757;SDS011;3416;53.074;8.822;2023-12-20T00:15:20;10.77;;;3.25;;
6757;SDS011;3416;53.074;8.822;2023-12-20T00:17:47;14.88;;;2.95;;
6757;SDS011;3416;53.074;8.822;2023-12-20T00:20:14;6.03;;;3.47;;
6757;SDS011;3416;53.074;8.822;2023-12-20T00:22:41;8.20;;;3.33;;
6757;SDS011;3416;53.074;8.822;2023-12-20T00:25:09;7.70;;;2.83;;
6757;SDS011;3416;53.074;8.822;2023-12-20T00:27:36;13.63;;;2.78;;
6757;SDS011;3416;53.074;8.822;2023-12-20T00:30:04;14.70;;;3.70;;
6757;SDS011;3416;53.074;8.822;2023-12-20T00:32:33;8.93;;;2.33;;
6757;SDS011;3416;53.074;8.822;2023-12-20T00:35:01;16.13;;;3.33;;
6757;SDS011;3416;53.074;8.822;2023-12-20T00:37:28;16.10;;;2.83;;
6757;SDS011;3416;53.074;8.822;2023-12-20T00:39:55;15.43;;;2.35;;
6757;SDS011;3416;53.074;8.822;2023-12-20T00:42:22;21.83;;;2.40;;
6757;SDS011;3416;53.074;8.822;2023-12-20T00:44:49;11.23;;;2.97;;
6757;SDS011;3416;53.074;8.822;2023-12-20T00:47:16;9.30;;;2.30;;
6757;SDS011;3416;53.074;8.822;2023-12-20T00:49:45;18.52;;;3.40;;
6757;SDS011;3416;53.074;8.822;2023-12-20T00:52:12;11.27;;;3.17;;
6757;SDS011;3416;53.074;8.822;2023-12-20T00:54:39;8.68;;;2.72;;
6757;SDS011;3416;53.074;8.822;2023-12-20T00:57:07;14.50;;;2.40;;
6757;SDS011;3416;53.074;8.822;2023-12-20T00:59:34;12.85;;;2.92;;
6757;SDS011;3416;53.074;8.822;2023-12-20T01:02:01;6.45;;;2.40;;
6757;SDS011;3416;53.074;8.822;2023-12-20T01:04:28;15.10;;;3.30;;
6757;SDS011;3416;53.074;8.822;2023-12-20T01:06:57;12.70;;;3.60;;
6757;SDS011;3416;53.074;8.822;2023-12-20T01:09:24;12.32;;;2.88;;
6757;SDS011;3416;53.074;8.822;2023-12-20T01:11:51;8.00;;;3.45;;
6757;SDS011;3416;53.074;8.822;2023-12-20T01:14:20;22.80;;;3.95;;
6757;SDS011;3416;53.074;8.822;2023-12-20T01:16:47;8.43;;;2.75;;
6757;SDS011;3416;53.074;8.822;2023-12-20T01:19:15;16.75;;;3.60;;
6757;SDS011;3416;53.074;8.822;2023-12-20T01:21:42;12.00;;;3.38;;
6757;SDS011;3416;53.074;8.822;2023-12-20T01:24:10;10.90;;;2.97;;
6757;SDS011;3416;53.074;8.822;2023-12-20T01:26:37;13.68;;;3.35;;
6757;SDS011;3416;53.074;8.822;2023-12-20T01:29:05;11.00;;;3.58;;
6757;SDS011;3416;53.074;8.822;2023-12-20T01:31:33;14.20;;;3.10;;
6757;SDS011;3416;53.074;8.822;2023-12-20T01:34:00;6.55;;;2.95;;
6757;SDS011;3416;53.074;8.822;2023-12-20T01:36:26;13.07;;;3.60;;
6757;SDS011;3416;53.074;8.822;2023-12-20T01:38:54;3.75;;;3.20;;
6757;SDS011;3416;53.074;8.822;2023-12-20T01:41:22;10.10;;;2.72;;
6757;SDS011;3416;53.074;8.822;2023-12-20T01:43:50;9.02;;;2.15;;
6757;SDS011;3416;53.074;8.822;2023-12-20T01:46:18;18.90;;;5.60;;
6757;SDS011;3416;53.074;8.822;2023-12-20T01:48:46;14.18;;;3.35;;
6757;SDS011;3416;53.074;8.822;2023-12-20T01:51:14;10.27;;;2.47;;
6757;SDS011;3416;53.074;8.822;2023-12-20T01:53:42;12.10;;;3.95;;
6757;SDS011;3416;53.074;8.822;2023-12-20T01:56:10;7.50;;;1.55;;
6757;SDS011;3416;53.074;8.822;2023-12-20T02:01:13;10.50;;;3.13;;
6757;SDS011;3416;53.074;8.822;2023-12-20T02:03:41;7.65;;;2.40;;
6757;SDS011;3416;53.074;8.822;2023-12-20T02:06:08;11.45;;;2.97;;
6757;SDS011;3416;53.074;8.822;2023-12-20T02:08:36;14.40;;;2.95;;
6757;SDS011;3416;53.074;8.822;2023-12-20T02:11:03;13.80;;;2.75;;
6757;SDS011;3416;53.074;8.822;2023-12-20T02:13:30;10.00;;;3.33;;
6757;SDS011;3416;53.074;8.822;2023-12-20T02:15:58;25.77;;;4.75;;
6757;SDS011;3416;53.074;8.822;2023-12-20T02:18:25;23.88;;;4.18;;
6757;SDS011;3416;53.074;8.822;2023-12-20T02:20:52;8.60;;;2.45;;
6757;SDS011;3416;53.074;8.822;2023-12-20T02:23:21;14.38;;;2.47;;
6757;SDS011;3416;53.074;8.822;2023-12-20T02:25:49;9.45;;;4.30;;
6757;SDS011;3416;53.074;8.822;2023-12-20T02:28:16;6.50;;;1.98;;
6757;SDS011;3416;53.074;8.822;2023-12-20T02:30:44;15.50;;;2.88;;
6757;SDS011;3416;53.074;8.822;2023-12-20T02:33:12;10.40;;;2.53;;
6757;SDS011;3416;53.074;8.822;2023-12-20T02:35:40;8.20;;;2.70;;
6757;SDS011;3416;53.074;8.822;2023-12-20T02:38:07;12.50;;;2.88;;
6757;SDS011;3416;53.074;8.822;2023-12-20T02:40:35;7.63;;;2.75;;
6757;SDS011;3416;53.074;8.822;2023-12-20T02:43:02;12.55;;;2.47;;
6757;SDS011;3416;53.074;8.822;2023-12-20T02:45:32;11.85;;;2.85;;
6757;SDS011;3416;53.074;8.822;2023-12-20T02:47:59;11.15;;;3.65;;
6757;SDS011;3416;53.074;8.822;2023-12-20T02:50:25;7.97;;;2.45;;
6757;SDS011;3416;53.074;8.822;2023-12-20T02:52:52;10.20;;;2.47;;
6757;SDS011;3416;53.074;8.822;2023-12-20T02:55:20;14.55;;;2.58;;
6757;SDS011;3416;53.074;8.822;2023-12-20T02:57:48;10.13;;;2.80;;
6757;SDS011;3416;53.074;8.822;2023-12-20T03:00:15;10.35;;;4.57;;
6757;SDS011;3416;53.074;8.822;2023-12-20T03:02:42;10.07;;;3.30;;
6757;SDS011;3416;53.074;8.822;2023-12-20T03:05:09;13.10;;;3.90;;
6757;SDS011;3416;53.074;8.822;2023-12-20T03:07:36;15.65;;;3.80;;
6757;SDS011;3416;53.074;8.822;2023-12-20T03:10:04;11.52;;;3.05;;
6757;SDS011;3416;53.074;8.822;2023-12-20T03:12:32;6.93;;;2.35;;
6757;SDS011;3416;53.074;8.822;2023-12-20T03:15:01;18.42;;;3.53;;
6757;SDS011;3416;53.074;8.822;2023-12-20T03:17:28;9.73;;;2.72;;
6757;SDS011;3416;53.074;8.822;2023-12-20T03:19:55;7.88;;;3.22;;
6757;SDS011;3416;53.074;8.822;2023-12-20T03:22:22;9.45;;;2.97;;
6757;SDS011;3416;53.074;8.822;2023-12-20T03:27:24;9.38;;;2.60;;
6757;SDS011;3416;53.074;8.822;2023-12-20T03:29:58;6.78;;;2.20;;
6757;SDS011;3416;53.074;8.822;2023-12-20T03:32:26;10.43;;;5.65;;
6757;SDS011;3416;53.074;8.822;2023-12-20T03:34:54;25.15;;;2.92;;
6757;SDS011;3416;53.074;8.822;2023-12-20T03:37:22;11.57;;;2.70;;
6757;SDS011;3416;53.074;8.822;2023-12-20T03:39:49;12.93;;;3.50;;
6757;SDS011;3416;53.074;8.822;2023-12-20T03:42:17;16.33;;;3.70;;
6757;SDS011;3416;53.074;8.822;2023-12-20T03:44:43;7.20;;;2.80;;
6757;SDS011;3416;53.074;8.822;2023-12-20T03:47:11;13.38;;;3.40;;
6757;SDS011;3416;53.074;8.822;2023-12-20T03:49:39;14.15;;;3.55;;
6757;SDS011;3416;53.074;8.822;2023-12-20T03:52:06;17.30;;;5.95;;
6757;SDS011;3416;53.074;8.822;2023-12-20T03:54:34;21.17;;;4.10;;
6757;SDS011;3416;53.074;8.822;2023-12-20T03:57:02;9.15;;;3.30;;
6757;SDS011;3416;53.074;8.822;2023-12-20T03:59:29;9.98;;;3.83;;
6757;SDS011;3416;53.074;8.822;2023-12-20T04:02:00;25.10;;;4.97;;
6757;SDS011;3416;53.074;8.822;2023-12-20T04:04:27;11.40;;;4.35;;
6757;SDS011;3416;53.074;8.822;2023-12-20T04:06:56;20.45;;;3.20;;
6757;SDS011;3416;53.074;8.822;2023-12-20T04:09:23;31.10;;;5.13;;
6757;SDS011;3416;53.074;8.822;2023-12-20T04:11:50;12.90;;;5.05;;
6757;SDS011;3416;53.074;8.822;2023-12-20T04:14:17;13.35;;;3.90;;
6757;SDS011;3416;53.074;8.822;2023-12-20T04:16:44;12.50;;;4.30;;
6757;SDS011;3416;53.074;8.822;2023-12-20T04:19:11;18.55;;;4.13;;
6757;SDS011;3416;53.074;8.822;2023-12-20T04:21:40;11.95;;;4.30;;
6757;SDS011;3416;53.074;8.822;2023-12-20T04:24:09;14.43;;;5.43;;
6757;SDS011;3416;53.074;8.822;2023-12-20T04:26:36;14.30;;;5.10;;
6757;SDS011;3416;53.074;8.822;2023-12-20T04:29:03;15.07;;;4.40;;
6757;SDS011;3416;53.074;8.822;2023-12-20T04:31:30;13.75;;;4.40;;
6757;SDS011;3416;53.074;8.822;2023-12-20T04:33:57;12.38;;;4.18;;
6757;SDS011;3416;53.074;8.822;2023-12-20T04:36:24;13.60;;;4.13;;
6757;SDS011;3416;53.074;8.822;2023-12-20T04:38:52;11.18;;;5.85;;
6757;SDS011;3416;53.074;8.822;2023-12-20T04:41:20;12.18;;;4.32;;
6757;SDS011;3416;53.074;8.822;2023-12-20T04:43:48;22.35;;;6.15;;
6757;SDS011;3416;53.074;8.822;2023-12-20T04:46:16;13.60;;;4.68;;
6757;SDS011;3416;53.074;8.822;2023-12-20T04:48:43;16.15;;;5.22;;
6757;SDS011;3416;53.074;8.822;2023-12-20T04:51:10;19.08;;;6.22;;
6757;SDS011;3416;53.074;8.822;2023-12-20T04:53:37;18.50;;;6.80;;
6757;SDS011;3416;53.074;8.822;2023-12-20T04:56:04;14.93;;;8.13;;
6757;SDS011;3416;53.074;8.822;2023-12-20T04:58:35;17.95;;;6.75;;
6757;SDS011;3416;53.074;8.822;2023-12-20T05:01:03;16.10;;;6.75;;
6757;SDS011;3416;53.074;8.822;2023-12-20T05:03:32;18.23;;;6.40;;
6757;SDS011;3416;53.074;8.822;2023-12-20T05:05:59;16.98;;;5.82;;
6757;SDS011;3416;53.074;8.822;2023-12-20T05:08:26;21.00;;;5.00;;
6757;SDS011;3416;53.074;8.822;2023-12-20T05:10:53;18.15;;;6.90;;
6757;SDS011;3416;53.074;8.822;2023-12-20T05:13:20;21.77;;;5.32;;
6757;SDS011;3416;53.074;8.822;2023-12-20T05:15:50;12.63;;;4.93;;
6757;SDS011;3416;53.074;8.822;2023-12-20T05:18:17;18.67;;;5.90;;
6757;SDS011;3416;53.074;8.822;2023-12-20T05:20:44;8.75;;;4.88;;
6757;SDS011;3416;53.074;8.822;2023-12-20T05:23:11;15.18;;;5.45;;
6757;SDS011;3416;53.074;8.822;2023-12-20T05:25:40;17.60;;;4.95;;
6757;SDS011;3416;53.074;8.822;2023-12-20T05:28:07;13.18;;;5.05;;
6757;SDS011;3416;53.074;8.822;2023-12-20T05:30:34;17.20;;;5.35;;
6757;SDS011;3416;53.074;8.822;2023-12-20T05:33:02;14.73;;;4.78;;
6757;SDS011;3416;53.074;8.822;2023-12-20T05:35:29;16.80;;;5.88;;
6757;SDS011;3416;53.074;8.822;2023-12-20T05:37:56;7.80;;;3.45;;
6757;SDS011;3416;53.074;8.822;2023-12-20T05:40:23;17.10;;;4.72;;
6757;SDS011;3416;53.074;8.822;2023-12-20T05:42:50;10.07;;;3.85;;
6757;SDS011;3416;53.074;8.822;2023-12-20T05:45:18;22.63;;;5.18;;
6757;SDS011;3416;53.074;8.822;2023-12-20T05:47:45;20.42;;;4.93;;
6757;SDS011;3416;53.074;8.822;2023-12-20T05:50:14;14.60;;;4.00;;
6757;SDS011;3416;53.074;8.822;2023-12-20T05:52:41;23.67;;;5.18;;
6757;SDS011;3416;53.074;8.822;2023-12-20T05:55:14;16.50;;;5.50;;
6757;SDS011;3416;53.074;8.822;2023-12-20T05:57:42;22.38;;;4.38;;
6757;SDS011;3416;53.074;8.822;2023-12-20T06:00:10;23.50;;;5.30;;
6757;SDS011;3416;53.074;8.822;2023-12-20T06:02:38;9.52;;;4.55;;
6757;SDS011;3416;53.074;8.822;2023-12-20T06:05:05;21.50;;;5.20;;
6757;SDS011;3416;53.074;8.822;2023-12-20T06:07:34;15.48;;;4.05;;
6757;SDS011;3416;53.074;8.822;2023-12-20T06:10:02;9.50;;;3.80;;
6757;SDS011;3416;53.074;8.822;2023-12-20T06:12:29;8.55;;;3.60;;
6757;SDS011;3416;53.074;8.822;2023-12-20T06:14:58;17.95;;;6.45;;
6757;SDS011;3416;53.074;8.822;2023-12-20T06:17:25;20.10;;;5.68;;
6757;SDS011;3416;53.074;8.822;2023-12-20T06:19:55;22.23;;;5.85;;
6757;SDS011;3416;53.074;8.822;2023-12-20T06:22:22;11.93;;;4.15;;
6757;SDS011;3416;53.074;8.822;2023-12-20T06:24:52;9.90;;;3.97;;
6757;SDS011;3416;53.074;8.822;2023-12-20T06:27:19;19.70;;;4.32;;
6757;SDS011;3416;53.074;8.822;2023-12-20T06:29:47;19.42;;;6.60;;
6757;SDS011;3416;53.074;8.822;2023-12-20T06:32:14;22.45;;;4.38;;
6757;SDS011;3416;53.074;8.822;2023-12-20T06:34:41;15.20;;;4.78;;
6757;SDS011;3416;53.074;8.822;2023-12-20T06:37:08;20.13;;;4.88;;
6757;SDS011;3416;53.074;8.822;2023-12-20T06:39:35;21.95;;;4.82;;
6757;SDS011;3416;53.074;8.822;2023-12-20T06:42:04;13.82;;;5.30;;
6757;SDS011;3416;53.074;8.822;2023-12-20T06:44:30;18.95;;;5.10;;
6757;SDS011;3416;53.074;8.822;2023-12-20T06:46:58;19.35;;;5.40;;
6757;SDS011;3416;53.074;8.822;2023-12-20T06:49:25;19.98;;;5.47;;
6757;SDS011;3416;53.074;8.822;2023-12-20T06:51:54;28.73;;;6.38;;
6757;SDS011;3416;53.074;8.822;2023-12-20T06:54:21;24.42;;;4.45;;
6757;SDS011;3416;53.074;8.822;2023-12-20T06:56:48;12.65;;;4.88;;
6757;SDS011;3416;53.074;8.822;2023-12-20T06:59:16;18.10;;;4.15;;
6757;SDS011;3416;53.074;8.822;2023-12-20T07:01:47;16.45;;;5.32;;
6757;SDS011;3416;53.074;8.822;2023-12-20T07:04:15;22.30;;;5.95;;
6757;SDS011;3416;53.074;8.822;2023-12-20T07:06:45;18.02;;;6.22;;
6757;SDS011;3416;53.074;8.822;2023-12-20T07:09:12;16.80;;;5.95;;
6757;SDS011;3416;53.074;8.822;2023-12-20T07:11:40;17.65;;;4.85;;
6757;SDS011;3416;53.074;8.822;2023-12-20T07:14:07;17.35;;;6.00;;
6757;SDS011;3416;53.074;8.822;2023-12-20T07:16:36;18.92;;;6.03;;
6757;SDS011;3416;53.074;8.822;2023-12-20T07:19:09;26.42;;;6.85;;
6757;SDS011;3416;53.074;8.822;2023-12-20T07:21:36;18.63;;;4.53;;
6757;SDS011;3416;53.074;8.822;2023-12-20T07:24:04;20.83;;;6.13;;
6757;SDS011;3416;53.074;8.822;2023-12-20T07:26:31;18.08;;;5.22;;
6757;SDS011;3416;53.074;8.822;2023-12-20T07:28:59;22.67;;;6.25;;
6757;SDS011;3416;53.074;8.822;2023-12-20T07:31:26;21.52;;;4.78;;
6757;SDS011;3416;53.074;8.822;2023-12-20T07:34:00;22.45;;;6.60;;
6757;SDS011;3416;53.074;8.822;2023-12-20T07:36:35;16.85;;;5.35;;
6757;SDS011;3416;53.074;8.822;2023-12-20T07:39:02;17.38;;;5.70;;
6757;SDS011;3416;53.074;8.822;2023-12-20T07:41:29;17.63;;;5.70;;
6757;SDS011;3416;53.074;8.822;2023-12-20T07:43:56;19.92;;;4.82;;
6757;SDS011;3416;53.074;8.822;2023-12-20T07:46:24;12.57;;;4.65;;
6757;SDS011;3416;53.074;8.822;2023-12-20T07:48:52;20.58;;;6.50;;
6757;SDS011;3416;53.074;8.822;2023-12-20T07:51:20;18.77;;;5.55;;
6757;SDS011;3416;53.074;8.822;2023-12-20T07:53:48;23.35;;;7.35;;
6757;SDS011;3416;53.074;8.822;2023-12-20T07:56:15;23.63;;;5.60;;
6757;SDS011;3416;53.074;8.822;2023-12-20T07:58:43;13.45;;;6.15;;
6757;SDS011;3416;53.074;8.822;2023-12-20T08:01:10;27.15;;;6.82;;
6757;SDS011;3416;53.074;8.822;2023-12-20T08:03:39;27.05;;;7.70;;
6757;SDS011;3416;53.074;8.822;2023-12-20T08:06:06;23.80;;;10.20;;
6757;SDS011;3416;53.074;8.822;2023-12-20T08:08:35;26.58;;;6.68;;
6757;SDS011;3416;53.074;8.822;2023-12-20T08:11:02;25.67;;;5.82;;
6757;SDS011;3416;53.074;8.822;2023-12-20T08:13:29;23.58;;;5.68;;
6757;SDS011;3416;53.074;8.822;2023-12-20T08:15:57;25.02;;;5.13;;
6757;SDS011;3416;53.074;8.822;2023-12-20T08:18:24;17.73;;;5.50;;
6757;SDS011;3416;53.074;8.822;2023-12-20T08:20:51;10.95;;;4.95;;
6757;SDS011;3416;53.074;8.822;2023-12-20T08:23:19;16.23;;;4.90;;
6757;SDS011;3416;53.074;8.822;2023-12-20T08:25:48;27.50;;;5.25;;
6757;SDS011;3416;53.074;8.822;2023-12-20T08:28:15;14.80;;;4.68;;
6757;SDS011;3416;53.074;8.822;2023-12-20T08:30:42;17.17;;;5.25;;
6757;SDS011;3416;53.074;8.822;2023-12-20T08:33:09;17.55;;;7.22;;
6757;SDS011;3416;53.074;8.822;2023-12-20T08:35:38;22.15;;;6.20;;
6757;SDS011;3416;53.074;8.822;2023-12-20T08:38:05;23.58;;;4.95;;
6757;SDS011;3416;53.074;8.822;2023-12-20T08:40:32;12.82;;;4.63;;
6757;SDS011;3416;53.074;8.822;2023-12-20T08:43:01;13.90;;;4.50;;
6757;SDS011;3416;53.074;8.822;2023-12-20T08:45:28;15.35;;;4.90;;
6757;SDS011;3416;53.074;8.822;2023-12-20T08:47:55;14.68;;;5.40;;
6757;SDS011;3416;53.074;8.822;2023-12-20T08:50:22;15.38;;;4.85;;
6757;SDS011;3416;53.074;8.822;2023-12-20T08:52:50;17.60;;;4.28;;
6757;SDS011;3416;53.074;8.822;2023-12-20T08:55:17;13.13;;;5.95;;
6757;SDS011;3416;53.074;8.822;2023-12-20T08:57:45;24.02;;;9.38;;
6757;SDS011;3416;53.074;8.822;2023-12-20T09:00:14;15.73;;;5.70;;
6757;SDS011;3416;53.074;8.822;2023-12-20T09:02:41;16.73;;;5.10;;
6757;SDS011;3416;53.074;8.822;2023-12-20T09:05:09;14.95;;;5.22;;
6757;SDS011;3416;53.074;8.822;2023-12-20T09:07:36;7.68;;;4.30;;
6757;SDS011;3416;53.074;8.822;2023-12-20T09:10:06;16.00;;;5.88;;
6757;SDS011;3416;53.074;8.822;2023-12-20T09:12:33;12.50;;;4.63;;
6757;SDS011;3416;53.074;8.822;2023-12-20T09:15:00;12.77;;;5.75;;
6757;SDS011;3416;53.074;8.822;2023-12-20T09:17:29;11.35;;;4.63;;
6757;SDS011;3416;53.074;8.822;2023-12-20T09:19:56;25.38;;;5.55;;
6757;SDS011;3416;53.074;8.822;2023-12-20T09:22:26;17.02;;;4.55;;
6757;SDS011;3416;53.074;8.822;2023-12-20T09:24:53;23.55;;;5.28;;
6757;SDS011;3416;53.074;8.822;2023-12-20T09:27:20;21.50;;;4.82;;
6757;SDS011;3416;53.074;8.822;2023-12-20T09:29:47;23.10;;;6.00;;
6757;SDS011;3416;53.074;8.822;2023-12-20T09:32:14;20.70;;;5.82;;
6757;SDS011;3416;53.074;8.822;2023-12-20T09:34:43;10.43;;;4.10;;
6757;SDS011;3416;53.074;8.822;2023-12-20T09:37:10;20.17;;;6.53;;
6757;SDS011;3416;53.074;8.822;2023-12-20T09:39:37;22.85;;;4.88;;
6757;SDS011;3416;53.074;8.822;2023-12-20T09:42:04;13.07;;;4.78;;
6757;SDS011;3416;53.074;8.822;2023-12-20T09:44:33;20.40;;;7.05;;
6757;SDS011;3416;53.074;8.822;2023-12-20T09:47:01;14.43;;;5.03;;
6757;SDS011;3416;53.074;8.822;2023-12-20T09:49:30;22.02;;;5.57;;
6757;SDS011;3416;53.074;8.822;2023-12-20T09:51:58;20.55;;;6.43;;
6757;SDS011;3416;53.074;8.822;2023-12-20T09:54:28;12.60;;;4.40;;
6757;SDS011;3416;53.074;8.822;2023-12-20T09:56:55;16.00;;;4.53;;
6757;SDS011;3416;53.074;8.822;2023-12-20T09:59:23;10.98;;;4.00;;
6757;SDS011;3416;53.074;8.822;2023-12-20T10:01:50;12.18;;;4.30;;
6757;SDS011;3416;53.074;8.822;2023-12-20T10:04:19;11.13;;;2.67;;
6757;SDS011;3416;53.074;8.822;2023-12-20T10:06:46;9.95;;;2.70;;
6757;SDS011;3416;53.074;8.822;2023-12-20T10:09:15;5.28;;;2.35;;
6757;SDS011;3416;53.074;8.822;2023-12-20T10:11:42;6.38;;;2.55;;
6757;SDS011;3416;53.074;8.822;2023-12-20T10:14:10;6.75;;;1.80;;
6757;SDS011;3416;53.074;8.822;2023-12-20T10:16:37;7.90;;;1.50;;
6757;SDS011;3416;53.074;8.822;2023-12-20T10:19:04;3.90;;;2.10;;
6757;SDS011;3416;53.074;8.822;2023-12-20T10:21:31;7.55;;;1.95;;
6757;SDS011;3416;53.074;8.822;2023-12-20T10:24:01;3.95;;;1.10;;
6757;SDS011;3416;53.074;8.822;2023-12-20T10:26:29;3.92;;;1.65;;
6757;SDS011;3416;53.074;8.822;2023-12-20T10:28:56;2.25;;;1.50;;
6757;SDS011;3416;53.074;8.822;2023-12-20T10:31:28;3.83;;;1.25;;
6757;SDS011;3416;53.074;8.822;2023-12-20T10:33:59;3.20;;;1.17;;
6757;SDS011;3416;53.074;8.822;2023-12-20T10:36:27;2.55;;;1.30;;
6757;SDS011;3416;53.074;8.822;2023-12-20T10:38:55;2.55;;;1.20;;
6757;SDS011;3416;53.074;8.822;2023-12-20T10:41:25;8.05;;;1.55;;
6757;SDS011;3416;53.074;8.822;2023-12-20T10:43:56;2.88;;;1.20;;
6757;SDS011;3416;53.074;8.822;2023-12-20T10:46:26;6.88;;;1.38;;
6757;SDS011;3416;53.074;8.822;2023-12-20T10:48:55;2.65;;;1.60;;
6757;SDS011;3416;53.074;8.822;2023-12-20T10:51:23;4.72;;;2.38;;
6757;SDS011;3416;53.074;8.822;2023-12-20T10:53:51;8.52;;;1.48;;
6757;SDS011;3416;53.074;8.822;2023-12-20T10:56:19;3.35;;;1.60;;
6757;SDS011;3416;53.074;8.822;2023-12-20T10:58:48;4.43;;;2.25;;
6757;SDS011;3416;53.074;8.822;2023-12-20T11:01:17;3.65;;;2.03;;
6757;SDS011;3416;53.074;8.822;2023-12-20T11:03:48;4.35;;;1.35;;
6757;SDS011;3416;53.074;8.822;2023-12-20T11:06:23;1.92;;;1.00;;
6757;SDS011;3416;53.074;8.822;2023-12-20T11:09:03;2.35;;;1.10;;
6757;SDS011;3416;53.074;8.822;2023-12-20T11:11:40;6.10;;;1.63;;
6757;SDS011;3416;53.074;8.822;2023-12-20T11:14:23;3.78;;;1.92;;
6757;SDS011;3416;53.074;8.822;2023-12-20T11:17:06;4.28;;;2.45;;
6757;SDS011;3416;53.074;8.822;2023-12-20T11:19:35;11.65;;;2.15;;
6757;SDS011;3416;53.074;8.822;2023-12-20T11:22:04;7.57;;;2.03;;
6757;SDS011;3416;53.074;8.822;2023-12-20T11:24:31;7.30;;;1.70;;
6757;SDS011;3416;53.074;8.822;2023-12-20T11:27:00;6.70;;;2.55;;
6757;SDS011;3416;53.074;8.822;2023-12-20T11:29:30;5.50;;;2.03;;
6757;SDS011;3416;53.074;8.822;2023-12-20T11:31:59;10.15;;;1.90;;
6757;SDS011;3416;53.074;8.822;2023-12-20T11:34:29;9.13;;;2.10;;
6757;SDS011;3416;53.074;8.822;2023-12-20T11:36:59;5.85;;;2.65;;
6757;SDS011;3416;53.074;8.822;2023-12-20T11:39:28;9.35;;;2.42;;
6757;SDS011;3416;53.074;8.822;2023-12-20T11:41:57;12.60;;;3.05;;
6757;SDS011;3416;53.074;8.822;2023-12-20T11:44:30;8.82;;;2.55;;
6757;SDS011;3416;53.074;8.822;2023-12-20T11:46:57;6.47;;;1.80;;
6757;SDS011;3416;53.074;8.822;2023-12-20T11:49:25;5.40;;;2.20;;
6757;SDS011;3416;53.074;8.822;2023-12-20T11:51:55;6.45;;;1.88;;
6757;SDS011;3416;53.074;8.822;2023-12-20T11:54:24;7.95;;;1.90;;
6757;SDS011;3416;53.074;8.822;2023-12-20T11:56:51;4.05;;;1.48;;
6757;SDS011;3416;53.074;8.822;2023-12-20T11:59:19;10.82;;;2.80;;
6757;SDS011;3416;53.074;8.822;2023-12-20T12:01:49;10.98;;;2.72;;
6757;SDS011;3416;53.074;8.822;2023-12-20T12:04:17;5.03;;;2.03;;
6757;SDS011;3416;53.074;8.822;2023-12-20T12:06:44;5.97;;;1.60;;
6757;SDS011;3416;53.074;8.822;2023-12-20T12:09:13;6.32;;;1.85;;
6757;SDS011;3416;53.074;8.822;2023-12-20T12:11:41;10.68;;;2.75;;
6757;SDS011;3416;53.074;8.822;2023-12-20T12:14:08;12.20;;;3.08;;
6757;SDS011;3416;53.074;8.822;2023-12-20T12:16:35;5.70;;;2.47;;
6757;SDS011;3416;53.074;8.822;2023-12-20T12:19:05;12.80;;;2.08;;
6757;SDS011;3416;53.074;8.822;2023-12-20T12:21:32;11.30;;;3.55;;
6757;SDS011;3416;53.074;8.822;2023-12-20T12:24:06;15.68;;;4.35;;
6757;SDS011;3416;53.074;8.822;2023-12-20T12:26:36;18.58;;;3.58;;
6757;SDS011;3416;53.074;8.822;2023-12-20T12:29:06;9.00;;;3.25;;
6757;SDS011;3416;53.074;8.822;2023-12-20T12:31:35;7.57;;;2.78;;
6757;SDS011;3416;53.074;8.822;2023-12-20T12:34:04;15.20;;;6.65;;
6757;SDS011;3416;53.074;8.822;2023-12-20T12:36:31;14.80;;;5.40;;
6757;SDS011;3416;53.074;8.822;2023-12-20T12:39:01;10.52;;;3.38;;
6757;SDS011;3416;53.074;8.822;2023-12-20T12:41:29;14.13;;;4.32;;
6757;SDS011;3416;53.074;8.822;2023-12-20T12:43:58;12.77;;;5.03;;
6757;SDS011;3416;53.074;8.822;2023-12-20T12:46:25;8.57;;;3.17;;
6757;SDS011;3416;53.074;8.822;2023-12-20T12:48:52;4.28;;;2.03;;
6757;SDS011;3416;53.074;8.822;2023-12-20T12:51:20;16.30;;;3.38;;
6757;SDS011;3416;53.074;8.822;2023-12-20T12:53:47;10.98;;;3.92;;
6757;SDS011;3416;53.074;8.822;2023-12-20T12:56:16;12.43;;;2.70;;
6757;SDS011;3416;53.074;8.822;2023-12-20T12:58:43;20.98;;;6.93;;
6757;SDS011;3416;53.074;8.822;2023-12-20T13:01:11;11.65;;;2.63;;
6757;SDS011;3416;53.074;8.822;2023-12-20T13:03:39;11.98;;;4.05;;
6757;SDS011;3416;53.074;8.822;2023-12-20T13:06:06;10.93;;;3.33;;
6757;SDS011;3416;53.074;8.822;2023-12-20T13:08:34;11.90;;;5.13;;
6757;SDS011;3416;53.074;8.822;2023-12-20T13:11:01;13.80;;;4.45;;
6757;SDS011;3416;53.074;8.822;2023-12-20T13:13:29;10.00;;;2.95;;
6757;SDS011;3416;53.074;8.822;2023-12-20T13:15:56;15.88;;;4.28;;
6757;SDS011;3416;53.074;8.822;2023-12-20T13:18:25;16.95;;;3.97;;
6757;SDS011;3416;53.074;8.822;2023-12-20T13:20:53;15.70;;;4.28;;
6757;SDS011;3416;53.074;8.822;2023-12-20T13:23:20;16.50;;;4.82;;
6757;SDS011;3416;53.074;8.822;2023-12-20T13:25:47;10.98;;;3.55;;
6757;SDS011;3416;53.074;8.822;2023-12-20T13:28:15;12.30;;;3.05;;
6757;SDS011;3416;53.074;8.822;2023-12-20T13:30:42;18.75;;;5.45;;
6757;SDS011;3416;53.074;8.822;2023-12-20T13:33:09;12.68;;;3.17;;
6757;SDS011;3416;53.074;8.822;2023-12-20T13:35:39;14.02;;;3.65;;
6757;SDS011;3416;53.074;8.822;2023-12-20T13:38:06;9.73;;;4.45;;
6757;SDS011;3416;53.074;8.822;2023-12-20T13:40:34;12.20;;;3.78;;
6757;SDS011;3416;53.074;8.822;2023-12-20T13:43:02;11.57;;;3.95;;
6757;SDS011;3416;53.074;8.822;2023-12-20T13:45:29;11.50;;;5.13;;
6757;SDS011;3416;53.074;8.822;2023-12-20T13:47:58;15.85;;;4.88;;
6757;SDS011;3416;53.074;8.822;2023-12-20T13:50:25;10.13;;;2.45;;
6757;SDS011;3416;53.074;8.822;2023-12-20T13:52:59;13.45;;;3.92;;
6757;SDS011;3416;53.074;8.822;2023-12-20T13:55:29;16.20;;;2.67;;
6757;SDS011;3416;53.074;8.822;2023-12-20T13:57:56;12.35;;;3.25;;
6757;SDS011;3416;53.074;8.822;2023-12-20T14:00:23;14.13;;;4.38;;
6757;SDS011;3416;53.074;8.822;2023-12-20T14:02:50;16.20;;;3.90;;
6757;SDS011;3416;53.074;8.822;2023-12-20T14:05:17;15.07;;;3.40;;
6757;SDS011;3416;53.074;8.822;2023-12-20T14:07:44;17.17;;;3.97;;
6757;SDS011;3416;53.074;8.822;2023-12-20T14:10:13;9.73;;;3.10;;
6757;SDS011;3416;53.074;8.822;2023-12-20T14:12:40;12.73;;;3.25;;
6757;SDS011;3416;53.074;8.822;2023-12-20T14:15:09;17.20;;;3.70;;
6757;SDS011;3416;53.074;8.822;2023-12-20T14:17:38;12.57;;;3.88;;
6757;SDS011;3416;53.074;8.822;2023-12-20T14:20:05;13.30;;;3.22;;
6757;SDS011;3416;53.074;8.822;2023-12-20T14:22:33;12.55;;;4.00;;
6757;SDS011;3416;53.074;8.822;2023-12-20T14:25:00;15.60;;;5.28;;
6757;SDS011;3416;53.074;8.822;2023-12-20T14:27:30;20.55;;;5.43;;
6757;SDS011;3416;53.074;8.822;2023-12-20T14:29:58;15.15;;;3.65;;
6757;SDS011;3416;53.074;8.822;2023-12-20T14:32:26;19.15;;;4.43;;
6757;SDS011;3416;53.074;8.822;2023-12-20T14:34:54;18.67;;;4.50;;
6757;SDS011;3416;53.074;8.822;2023-12-20T14:37:21;12.50;;;4.15;;
6757;SDS011;3416;53.074;8.822;2023-12-20T14:39:48;18.48;;;3.53;;
6757;SDS011;3416;53.074;8.822;2023-12-20T14:42:15;10.73;;;3.97;;
6757;SDS011;3416;53.074;8.822;2023-12-20T14:44:44;12.05;;;3.00;;
6757;SDS011;3416;53.074;8.822;2023-12-20T14:47:11;15.32;;;2.65;;
6757;SDS011;3416;53.074;8.822;2023-12-20T14:49:40;13.90;;;3.63;;
6757;SDS011;3416;53.074;8.822;2023-12-20T14:52:08;10.32;;;3.30;;
6757;SDS011;3416;53.074;8.822;2023-12-20T14:54:36;8.68;;;3.25;;
6757;SDS011;3416;53.074;8.822;2023-12-20T14:57:04;7.57;;;2.72;;
6757;SDS011;3416;53.074;8.822;2023-12-20T14:59:33;10.27;;;2.78;;
6757;SDS011;3416;53.074;8.822;2023-12-20T15:02:02;15.70;;;3.42;;
6757;SDS011;3416;53.074;8.822;2023-12-20T15:04:30;12.60;;;3.30;;
6757;SDS011;3416;53.074;8.822;2023-12-20T15:06:57;11.00;;;3.92;;
6757;SDS011;3416;53.074;8.822;2023-12-20T15:09:25;12.65;;;3.05;;
6757;SDS011;3416;53.074;8.822;2023-12-20T15:11:54;8.90;;;2.20;;
6757;SDS011;3416;53.074;8.822;2023-12-20T15:14:22;7.50;;;2.78;;